createdAt,value
2023-05-19T00:08:57.874Z,9.50
2023-05-19T00:19:05.673Z,9.40
2023-05-19T00:29:09.455Z,9.30
2023-05-19T00:39:14.514Z,9.30
2023-05-19T00:49:18.193Z,9.30
2023-05-19T00:59:23.451Z,9.20
2023-05-19T01:09:27.761Z,9.10
2023-05-19T01:19:56.207Z,9.00
2023-05-19T01:30:31.174Z,9.00
2023-05-19T01:40:35.506Z,8.80
2023-05-19T01:50:41.006Z,8.80
2023-05-19T02:00:55.050Z,8.60
2023-05-19T02:11:07.122Z,8.60
2023-05-19T02:21:13.285Z,8.50
2023-05-19T02:31:18.311Z,8.50
2023-05-19T02:41:22.193Z,8.50
2023-05-19T02:51:27.289Z,8.40
2023-05-19T03:01:32.624Z,8.40
2023-05-19T03:11:37.695Z,8.30
2023-05-19T03:21:41.662Z,8.20
2023-05-19T03:31:46.678Z,8.10
2023-05-19T03:41:51.438Z,8.00
2023-05-19T03:51:56.508Z,8.00
2023-05-19T04:02:00.255Z,7.90
2023-05-19T04:12:06.137Z,8.00
2023-05-19T04:22:09.822Z,8.10
2023-05-19T04:32:17.522Z,8.30
2023-05-19T04:42:21.394Z,8.10
2023-05-19T04:52:27.720Z,8.20
2023-05-19T05:02:32.132Z,8.20
2023-05-19T05:12:38.057Z,8.20
2023-05-19T05:22:42.926Z,8.20
2023-05-19T05:32:48.203Z,8.30
2023-05-19T05:42:52.125Z,8.50
2023-05-19T05:52:59.167Z,8.70
2023-05-19T06:03:03.150Z,9.00
2023-05-19T06:13:08.198Z,9.40
2023-05-19T06:23:11.790Z,9.80
2023-05-19T06:33:16.896Z,10.10
2023-05-19T06:43:20.565Z,10.60
2023-05-19T06:53:25.532Z,11.00
2023-05-19T07:03:30.984Z,11.10
2023-05-19T07:13:36.178Z,11.70
2023-05-19T07:23:40.039Z,12.30
2023-05-19T07:33:45.130Z,12.50
2023-05-19T07:43:48.839Z,12.90
2023-05-19T07:53:53.868Z,13.50
2023-05-19T08:03:57.869Z,13.70
2023-05-19T08:14:03.014Z,14.20
2023-05-19T08:24:07.503Z,15.10
2023-05-19T08:34:12.578Z,15.30
2023-05-19T08:44:17.601Z,15.70
2023-05-19T08:54:35.120Z,16.00
2023-05-19T09:04:40.130Z,16.20
2023-05-19T09:14:46.460Z,16.30
2023-05-19T09:24:51.003Z,16.30
2023-05-19T09:34:57.063Z,16.40
2023-05-19T09:45:03.997Z,16.70
2023-05-19T09:55:11.849Z,16.80
2023-05-19T10:05:17.571Z,16.90
2023-05-19T10:15:23.507Z,16.90
2023-05-19T10:25:27.361Z,17.50
2023-05-19T10:35:51.287Z,17.90
2023-05-19T10:45:55.768Z,18.30
2023-05-19T10:56:04.138Z,18.10
2023-05-19T11:06:20.578Z,17.80
2023-05-19T11:16:33.576Z,17.60
2023-05-19T11:26:44.109Z,18.20
2023-05-19T11:36:50.255Z,18.30
2023-05-19T11:46:54.682Z,18.30
2023-05-19T11:57:02.802Z,18.60
2023-05-19T12:07:07.093Z,19.00
2023-05-19T12:17:17.615Z,19.20
2023-05-19T12:27:26.239Z,19.70
2023-05-19T12:37:31.626Z,19.80
2023-05-19T12:47:36.766Z,19.80
2023-05-19T12:57:45.077Z,19.80
2023-05-19T13:07:56.531Z,20.00
2023-05-19T13:18:04.043Z,19.40
2023-05-19T13:28:07.979Z,19.90
2023-05-19T13:38:13.010Z,20.20
2023-05-19T13:48:16.900Z,20.10
2023-05-19T13:58:22.407Z,20.60
2023-05-19T14:08:26.165Z,20.40
2023-05-19T14:18:32.398Z,21.00
2023-05-19T14:28:36.154Z,20.70
2023-05-19T14:38:41.326Z,21.20
2023-05-19T14:48:45.044Z,20.70
2023-05-19T14:58:49.995Z,20.60
2023-05-19T15:08:53.678Z,21.10
2023-05-19T15:18:58.887Z,20.40
2023-05-19T15:29:02.559Z,20.40
2023-05-19T15:39:07.521Z,20.40
2023-05-19T15:49:12.627Z,20.40
2023-05-19T15:59:18.078Z,20.60
2023-05-19T16:09:21.795Z,20.60
2023-05-19T16:19:28.891Z,20.30
2023-05-19T16:29:32.535Z,20.50
2023-05-19T16:39:38.213Z,20.70
2023-05-19T16:49:42.027Z,20.70
2023-05-19T16:59:48.865Z,20.70
2023-05-19T17:09:54.484Z,20.90
2023-05-19T17:20:01.360Z,20.80
2023-05-19T17:30:06.127Z,20.50
2023-05-19T17:40:13.199Z,20.60
2023-05-19T17:50:17.191Z,21.80
2023-05-19T18:00:24.971Z,22.40
2023-05-19T18:10:28.974Z,21.20
2023-05-19T18:20:34.456Z,19.70
2023-05-19T18:30:38.554Z,18.60
2023-05-19T18:40:45.631Z,18.10
2023-05-19T18:50:49.608Z,17.70
2023-05-19T19:00:58.442Z,17.40
2023-05-19T19:11:02.329Z,17.00
2023-05-19T19:21:07.345Z,16.80
2023-05-19T19:31:11.119Z,16.60
2023-05-19T19:41:16.231Z,16.50
2023-05-19T19:51:20.075Z,16.30
2023-05-19T20:01:27.427Z,16.10
2023-05-19T20:11:31.652Z,15.90
2023-05-19T20:21:36.705Z,15.70
2023-05-19T20:31:41.110Z,15.60
2023-05-19T20:41:46.106Z,15.50
2023-05-19T20:51:49.760Z,15.20
2023-05-19T21:01:54.713Z,15.00
2023-05-19T21:11:58.426Z,14.70
2023-05-19T21:22:03.414Z,14.50
2023-05-19T21:32:07.939Z,14.20
2023-05-19T21:42:13.030Z,13.90
2023-05-19T21:52:16.777Z,13.60
2023-05-19T22:02:22.033Z,13.60
2023-05-19T22:12:32.397Z,13.50
2023-05-19T22:22:37.632Z,13.30
2023-05-19T22:32:41.324Z,13.20
2023-05-19T22:42:46.347Z,13.20
2023-05-19T22:52:50.111Z,13.10
2023-05-19T23:02:55.245Z,13.00
2023-05-19T23:12:58.982Z,13.10
2023-05-19T23:23:04.163Z,13.10
2023-05-19T23:33:07.964Z,13.10
2023-05-19T23:43:14.001Z,13.20
2023-05-19T23:53:17.693Z,13.20
